MRPV

Details ICAO MRPV (SYQ)
Name TOBIAS BOLANOS INTL
Region Costa Rica
Timezone America/Costa_Rica (UTC-6.0)
Plans Departing 82
Arriving 53
Stats Elevation 3,287 ft / 1,002 m (AMSL)
Location 9.957050° -84.139800°
Runways 1
Magnetic Variation 1.962° W
Sunrise 2019-05-23 11:16:01 UTC / 2019-05-23 05:16:01 Local
Sunset 2019-05-23 23:53:28 UTC / 2019-05-23 17:53:28 Local
Advertisement - Login to hide

Runways

ID Width Length Bearing (true/mag) Surface Threshold Overrun Markings Lighting
09 60 ft / 18 m 5,304 ft / 1,617 m 95.09° / 97.06° ASPHALT 200 ft / 61 m 0 ft / 0 m APP
27 60 ft / 18 m 5,304 ft / 1,617 m 275.10° / 277.06° ASPHALT 0 ft / 0 m 0 ft / 0 m APP

Map

Weather


0- 5 10 15 20 25 30 35+ Temperature / °C

Clouds and Precipitation
Forecast for 2019-05-23 18:00 UTC. Updated 4 hours ago

Ground ~20,000 ft ~40,000 ft Winds

METAR

MRPV 231900Z 28013KT 9999 RA VCSH FEW020TCU SCT035 BKN140 26/21 A2997 NOSIG

TAF

MRPV 231700Z 2318/2418 28007KT 9999 SCT020 SCT200 TX27/2418Z TN18/2411Z TEMPO 2320/2324 3000 TSRA SCT015CB TEMPO 2402/2406 VRB03KT RA BKN010 TEMPO 2407/2413 00000KT 1200 BR BKN010

Frequencies

Ground 121.70 MHz
Tower 118.30 MHz PAVAS TWR
Warning: Do not use this data for real-world aviation or navigation. No guarantee of current accuracy is given.